createdAt,value
2018-08-09T00:00:10.502Z,11.30
2018-08-09T00:02:39.768Z,7.73
2018-08-09T00:05:08.341Z,11.00
2018-08-09T00:07:37.093Z,8.87
2018-08-09T00:10:07.419Z,9.73
2018-08-09T00:12:36.899Z,8.37
2018-08-09T00:15:06.517Z,10.80
2018-08-09T00:17:35.121Z,9.10
2018-08-09T00:20:04.706Z,10.20
2018-08-09T00:22:33.401Z,9.30
2018-08-09T00:25:01.979Z,9.70
2018-08-09T00:27:30.348Z,8.90
2018-08-09T00:29:59.412Z,9.10
2018-08-09T00:32:28.049Z,12.33
2018-08-09T00:34:57.239Z,11.57
2018-08-09T00:37:26.455Z,10.30
2018-08-09T00:39:56.683Z,10.70
2018-08-09T00:42:24.755Z,10.00
2018-08-09T00:44:55.022Z,10.53
2018-08-09T00:47:23.720Z,13.67
2018-08-09T00:49:53.178Z,10.90
2018-08-09T00:52:22.498Z,10.90
2018-08-09T00:54:51.110Z,12.93
2018-08-09T00:57:23.067Z,11.93
2018-08-09T00:59:52.520Z,11.60
2018-08-09T01:02:23.967Z,11.63
2018-08-09T01:04:52.586Z,13.80
2018-08-09T01:07:21.212Z,11.73
2018-08-09T01:09:50.546Z,13.00
2018-08-09T01:12:19.238Z,12.90
2018-08-09T01:14:47.895Z,13.37
2018-08-09T01:17:17.421Z,12.10
2018-08-09T01:19:46.177Z,11.97
2018-08-09T01:22:14.667Z,13.80
2018-08-09T01:24:43.823Z,12.30
2018-08-09T01:27:13.375Z,12.70
2018-08-09T01:29:42.030Z,12.63
2018-08-09T01:32:10.698Z,13.27
2018-08-09T01:34:39.338Z,12.33
2018-08-09T01:37:09.196Z,12.77
2018-08-09T01:39:38.078Z,12.80
2018-08-09T01:42:28.503Z,11.97
2018-08-09T01:44:57.811Z,13.00
2018-08-09T01:47:26.469Z,12.97
2018-08-09T01:49:55.504Z,13.60
2018-08-09T01:52:23.984Z,13.80
2018-08-09T01:54:52.263Z,13.27
2018-08-09T01:57:21.651Z,12.97
2018-08-09T01:59:50.943Z,13.60
2018-08-09T02:02:20.195Z,12.23
2018-08-09T02:04:50.441Z,12.90
2018-08-09T02:07:19.401Z,13.80
2018-08-09T02:09:47.926Z,12.43
2018-08-09T02:12:16.478Z,12.57
2018-08-09T02:14:45.922Z,12.13
2018-08-09T02:17:15.024Z,12.60
2018-08-09T02:19:43.732Z,12.60
2018-08-09T02:22:12.326Z,12.47
2018-08-09T02:24:41.322Z,14.57
2018-08-09T02:27:09.642Z,10.90
2018-08-09T02:29:39.195Z,13.10
2018-08-09T02:32:07.964Z,14.20
2018-08-09T02:34:36.797Z,15.33
2018-08-09T02:37:06.263Z,14.30
2018-08-09T02:39:34.328Z,15.13
2018-08-09T02:42:04.093Z,14.07
2018-08-09T02:44:32.785Z,13.60
2018-08-09T02:47:03.142Z,14.43
2018-08-09T02:49:31.798Z,13.00
2018-08-09T02:52:00.710Z,13.90
2018-08-09T02:54:29.844Z,13.60
2018-08-09T02:56:58.921Z,11.47
2018-08-09T02:59:27.539Z,12.63
2018-08-09T03:01:56.134Z,13.57
2018-08-09T03:04:26.854Z,13.10
2018-08-09T03:06:55.434Z,13.80
2018-08-09T03:09:24.323Z,12.93
2018-08-09T03:11:52.963Z,11.80
2018-08-09T03:14:22.318Z,12.13
2018-08-09T03:16:50.914Z,13.37
2018-08-09T03:19:19.535Z,12.60
2018-08-09T03:21:48.106Z,11.60
2018-08-09T03:24:17.287Z,13.50
2018-08-09T03:26:46.253Z,13.97
2018-08-09T03:29:14.938Z,13.50
2018-08-09T03:31:43.557Z,13.43
2018-08-09T03:34:12.946Z,14.67
2018-08-09T03:36:43.215Z,14.77
2018-08-09T03:39:12.450Z,14.70
2018-08-09T03:41:41.527Z,15.30
2018-08-09T03:44:11.017Z,14.20
2018-08-09T03:46:39.681Z,12.57
2018-08-09T03:49:10.201Z,13.57
2018-08-09T03:51:40.542Z,14.00
2018-08-09T03:54:10.693Z,12.60
2018-08-09T03:56:39.736Z,18.60
2018-08-09T03:59:09.236Z,13.43
2018-08-09T04:01:37.711Z,13.10
2018-08-09T04:04:07.908Z,13.87
2018-08-09T04:06:36.583Z,20.23
2018-08-09T04:09:09.475Z,15.60
2018-08-09T04:11:38.391Z,17.67
2018-08-09T04:14:07.159Z,18.70
2018-08-09T04:16:36.427Z,13.33
2018-08-09T04:19:05.111Z,11.23
2018-08-09T04:21:33.820Z,14.83
2018-08-09T04:24:02.231Z,12.60
2018-08-09T04:26:31.731Z,11.93
2018-08-09T04:29:01.266Z,11.47
2018-08-09T04:31:31.479Z,12.27
2018-08-09T04:34:01.539Z,13.23
2018-08-09T04:36:30.326Z,12.50
2018-08-09T04:38:59.635Z,13.77
2018-08-09T04:41:28.923Z,11.90
2018-08-09T04:43:57.291Z,12.23
2018-08-09T04:46:26.427Z,12.27
2018-08-09T04:48:54.618Z,12.73
2018-08-09T04:51:24.044Z,13.50
2018-08-09T04:53:53.678Z,13.73
2018-08-09T04:56:23.118Z,13.20
2018-08-09T04:58:51.862Z,14.13
2018-08-09T05:01:21.228Z,14.23
2018-08-09T05:03:50.940Z,15.00
2018-08-09T05:06:19.626Z,15.20
2018-08-09T05:08:49.157Z,14.10
2018-08-09T05:11:18.811Z,16.20
2018-08-09T05:13:48.398Z,17.00
2018-08-09T05:16:17.092Z,16.37
2018-08-09T05:18:46.379Z,15.63
2018-08-09T05:21:14.936Z,15.10
2018-08-09T05:23:43.783Z,15.77
2018-08-09T05:26:12.447Z,14.87
2018-08-09T05:28:41.062Z,16.33
2018-08-09T05:31:12.397Z,16.93
2018-08-09T05:33:41.788Z,16.37
2018-08-09T05:36:11.508Z,17.47
2018-08-09T05:38:41.206Z,16.80
2018-08-09T05:41:10.857Z,15.77
2018-08-09T05:43:39.124Z,16.93
2018-08-09T05:46:08.707Z,17.03
2018-08-09T05:48:37.280Z,16.10
2018-08-09T05:51:06.734Z,18.20
2018-08-09T05:53:35.422Z,16.80
2018-08-09T05:56:04.457Z,17.67
2018-08-09T05:58:34.068Z,17.70
2018-08-09T06:01:05.008Z,18.80
2018-08-09T06:03:34.025Z,19.43
2018-08-09T06:06:02.819Z,19.73
2018-08-09T06:08:31.387Z,20.13
2018-08-09T06:11:01.305Z,18.83
2018-08-09T06:13:33.677Z,18.93
2018-08-09T06:16:02.245Z,19.33
2018-08-09T06:18:30.900Z,17.83
2018-08-09T06:20:59.593Z,19.30
2018-08-09T06:23:28.241Z,18.13
2018-08-09T06:25:56.805Z,18.57
2018-08-09T06:28:28.556Z,19.73
2018-08-09T06:30:58.208Z,18.50
2018-08-09T06:33:27.927Z,19.37
2018-08-09T06:35:58.364Z,19.07
2018-08-09T06:38:27.886Z,19.43
2018-08-09T06:40:58.051Z,17.83
2018-08-09T06:43:29.711Z,18.77
2018-08-09T06:45:58.891Z,17.07
2018-08-09T06:48:28.318Z,17.17
2018-08-09T06:50:58.047Z,16.13
2018-08-09T06:53:27.051Z,15.77
2018-08-09T06:55:55.981Z,13.20
2018-08-09T06:58:25.434Z,14.67
2018-08-09T07:00:54.634Z,13.23
2018-08-09T07:03:23.217Z,14.43
2018-08-09T07:05:53.799Z,13.83
2018-08-09T07:08:25.048Z,14.53
2018-08-09T07:10:55.475Z,13.03
2018-08-09T07:13:24.837Z,17.67
2018-08-09T07:15:53.449Z,16.33
2018-08-09T07:18:22.968Z,15.23
2018-08-09T07:20:52.324Z,12.43
2018-08-09T07:23:20.989Z,12.33
2018-08-09T07:25:51.042Z,14.03
2018-08-09T07:28:19.371Z,13.30
2018-08-09T07:30:48.067Z,12.70
2018-08-09T07:33:17.308Z,13.47
2018-08-09T07:35:46.074Z,24.20
2018-08-09T07:38:14.590Z,13.70
2018-08-09T07:40:43.616Z,13.63
2018-08-09T07:43:12.964Z,13.77
2018-08-09T07:45:41.548Z,14.57
2018-08-09T07:48:11.970Z,12.47
2018-08-09T07:50:44.470Z,12.83
2018-08-09T07:53:13.302Z,12.60
2018-08-09T07:55:41.949Z,11.93
2018-08-09T07:58:11.237Z,11.77
2018-08-09T08:00:39.861Z,12.13
2018-08-09T08:03:08.186Z,13.17
2018-08-09T08:05:38.371Z,13.50
2018-08-09T08:08:08.306Z,13.57
2018-08-09T08:10:36.998Z,13.20
2018-08-09T08:13:05.710Z,13.27
2018-08-09T08:15:34.499Z,14.10
2018-08-09T08:18:03.392Z,13.33
2018-08-09T08:20:34.205Z,13.33
2018-08-09T08:23:04.083Z,12.07
2018-08-09T08:25:33.240Z,12.53
2018-08-09T08:28:02.430Z,11.00
2018-08-09T08:30:31.133Z,11.90
2018-08-09T08:33:00.985Z,11.47
2018-08-09T08:35:31.293Z,12.70
2018-08-09T08:38:01.913Z,13.33
2018-08-09T08:40:30.579Z,12.77
2018-08-09T08:43:00.407Z,14.00
2018-08-09T08:45:29.838Z,13.60
2018-08-09T08:47:59.589Z,13.80
2018-08-09T08:50:29.679Z,13.53
2018-08-09T08:52:59.028Z,13.00
2018-08-09T08:55:30.212Z,12.87
2018-08-09T08:57:59.684Z,12.10
2018-08-09T09:00:30.278Z,12.40
2018-08-09T09:02:59.820Z,12.97
2018-08-09T09:05:31.174Z,12.80
2018-08-09T09:08:01.445Z,14.43
2018-08-09T09:10:31.826Z,13.67
2018-08-09T09:13:00.852Z,14.53
2018-08-09T09:15:29.856Z,16.10
2018-08-09T09:17:58.526Z,16.10
2018-08-09T09:20:27.904Z,17.97
2018-08-09T09:22:56.633Z,19.70
2018-08-09T09:25:26.339Z,20.23
2018-08-09T09:27:55.113Z,17.33
2018-08-09T09:30:23.849Z,17.27
2018-08-09T09:32:52.805Z,16.67
2018-08-09T09:35:21.572Z,16.90
2018-08-09T09:37:50.290Z,15.97
2018-08-09T09:40:19.208Z,14.90
2018-08-09T09:42:47.978Z,11.90
2018-08-09T09:45:17.018Z,11.60
2018-08-09T09:47:45.699Z,10.10
2018-08-09T09:50:14.867Z,9.33
2018-08-09T09:52:43.595Z,9.60
2018-08-09T09:55:12.231Z,7.43
2018-08-09T09:57:41.097Z,7.00
2018-08-09T10:00:16.219Z,6.43
2018-08-09T10:02:45.435Z,6.87
2018-08-09T10:05:14.867Z,6.73
2018-08-09T10:07:44.019Z,6.67
2018-08-09T10:10:14.039Z,9.13
2018-08-09T10:12:42.680Z,9.40
2018-08-09T10:15:11.860Z,6.23
2018-08-09T10:17:40.718Z,6.60
2018-08-09T10:20:10.573Z,6.17
2018-08-09T10:22:39.349Z,7.00
2018-08-09T10:25:08.273Z,8.77
2018-08-09T10:27:37.077Z,6.57
2018-08-09T10:30:07.596Z,6.77
2018-08-09T10:32:37.263Z,8.73
2018-08-09T10:35:06.350Z,7.80
2018-08-09T10:37:37.797Z,8.07
2018-08-09T10:40:06.548Z,8.17
2018-08-09T10:42:36.314Z,8.40
2018-08-09T10:45:06.023Z,9.50
2018-08-09T10:47:35.089Z,9.20
2018-08-09T10:50:05.735Z,9.40
2018-08-09T10:52:34.629Z,10.10
2018-08-09T10:55:03.705Z,9.60
2018-08-09T10:57:32.812Z,10.37
2018-08-09T11:00:01.586Z,10.00
2018-08-09T11:02:30.299Z,9.40
2018-08-09T11:05:01.171Z,9.57
2018-08-09T11:07:29.946Z,9.83
2018-08-09T11:09:58.522Z,9.83
2018-08-09T11:12:27.874Z,10.53
2018-08-09T11:14:57.393Z,9.83
2018-08-09T11:17:27.128Z,10.67
2018-08-09T11:19:55.820Z,11.07
2018-08-09T11:22:25.533Z,12.50
2018-08-09T11:24:54.935Z,13.83
2018-08-09T11:27:24.665Z,12.70
2018-08-09T11:29:53.317Z,12.93
2018-08-09T11:32:22.298Z,13.57
2018-08-09T11:34:50.988Z,13.50
2018-08-09T11:37:20.492Z,13.10
2018-08-09T11:39:50.777Z,14.80
2018-08-09T11:42:19.518Z,14.80
2018-08-09T11:44:48.808Z,14.20
2018-08-09T11:47:17.415Z,12.77
2018-08-09T11:49:46.217Z,12.57
2018-08-09T11:52:16.211Z,13.30
2018-08-09T11:54:45.076Z,13.30
2018-08-09T11:57:14.459Z,13.53
2018-08-09T11:59:43.170Z,14.37
2018-08-09T12:02:11.931Z,13.27
2018-08-09T12:04:40.948Z,14.97
2018-08-09T12:07:09.862Z,13.67
2018-08-09T12:09:38.778Z,15.60
2018-08-09T12:12:08.627Z,15.50
2018-08-09T12:14:38.389Z,16.87
2018-08-09T12:17:07.520Z,15.13
2018-08-09T12:19:37.126Z,17.43
2018-08-09T12:22:06.900Z,17.47
2018-08-09T12:24:35.334Z,16.57
2018-08-09T12:27:03.923Z,18.60
2018-08-09T12:29:33.198Z,18.37
2018-08-09T12:32:05.833Z,18.47
2018-08-09T12:34:34.545Z,17.87
2018-08-09T12:37:04.437Z,18.03
2018-08-09T12:39:34.788Z,17.40
2018-08-09T12:42:03.163Z,16.40
2018-08-09T12:44:32.948Z,18.37
2018-08-09T12:47:01.749Z,19.57
2018-08-09T12:49:30.686Z,18.70
2018-08-09T12:51:59.502Z,19.50
2018-08-09T12:54:28.487Z,19.33
2018-08-09T12:56:58.034Z,19.80
2018-08-09T12:59:26.899Z,20.67
2018-08-09T13:01:56.527Z,19.50
2018-08-09T13:04:25.909Z,19.07
2018-08-09T13:06:54.846Z,20.27
2018-08-09T13:09:23.283Z,20.40
2018-08-09T13:11:54.074Z,21.97
2018-08-09T13:14:23.594Z,22.73
2018-08-09T13:16:53.893Z,21.93
2018-08-09T13:19:23.259Z,22.23
2018-08-09T13:21:53.433Z,23.43
2018-08-09T13:24:22.724Z,24.10
2018-08-09T13:26:52.145Z,22.43
2018-08-09T13:29:20.919Z,21.93
2018-08-09T13:31:49.977Z,22.87
2018-08-09T13:34:19.084Z,23.20
2018-08-09T13:36:48.291Z,23.10
2018-08-09T13:39:17.808Z,25.40
2018-08-09T13:41:47.732Z,23.60
2018-08-09T13:44:17.032Z,24.73
2018-08-09T13:46:46.779Z,25.43
2018-08-09T13:49:15.543Z,25.47
2018-08-09T13:51:44.315Z,27.13
2018-08-09T13:54:13.985Z,28.93
2018-08-09T13:56:42.718Z,26.47
2018-08-09T13:59:11.398Z,27.40
2018-08-09T14:01:40.354Z,27.13
2018-08-09T14:04:09.757Z,26.37
2018-08-09T14:06:39.079Z,24.37
2018-08-09T14:09:12.076Z,25.17
2018-08-09T14:11:44.955Z,25.03
2018-08-09T14:14:13.779Z,23.53
2018-08-09T14:16:43.979Z,23.77
2018-08-09T14:19:13.484Z,24.93
2018-08-09T14:21:42.824Z,24.00
2018-08-09T14:24:12.375Z,23.93
2018-08-09T14:26:41.700Z,24.47
2018-08-09T14:29:12.588Z,23.77
2018-08-09T14:31:41.346Z,23.90
2018-08-09T14:34:10.001Z,24.43
2018-08-09T14:36:39.868Z,23.70
2018-08-09T14:39:11.064Z,23.97
2018-08-09T14:41:40.742Z,24.20
2018-08-09T14:44:09.570Z,24.70
2018-08-09T14:46:38.487Z,25.07
2018-08-09T14:49:07.275Z,25.07
2018-08-09T14:51:36.142Z,24.70
2018-08-09T14:54:05.223Z,26.40
2018-08-09T14:56:33.961Z,25.03
2018-08-09T14:59:02.857Z,25.33
2018-08-09T15:01:32.417Z,24.30
2018-08-09T15:04:02.200Z,24.50
2018-08-09T15:06:31.873Z,22.73
2018-08-09T15:09:01.751Z,23.47
2018-08-09T15:11:30.805Z,23.63
2018-08-09T15:14:00.940Z,24.63
2018-08-09T15:16:31.673Z,22.80
2018-08-09T15:19:01.225Z,24.90
2018-08-09T15:21:30.957Z,24.83
2018-08-09T15:24:00.514Z,26.20
2018-08-09T15:26:30.431Z,25.83
2018-08-09T15:29:00.103Z,27.30
2018-08-09T15:31:29.872Z,28.50
2018-08-09T15:33:59.462Z,28.47
2018-08-09T15:36:28.216Z,28.80
2018-08-09T15:38:57.505Z,29.40
2018-08-09T15:41:26.383Z,29.23
2018-08-09T15:43:55.680Z,27.13
2018-08-09T15:46:25.247Z,28.30
2018-08-09T15:48:54.389Z,29.40
2018-08-09T15:51:23.251Z,31.17
2018-08-09T15:53:52.079Z,29.20
2018-08-09T15:56:22.049Z,30.70
2018-08-09T15:58:52.110Z,31.80
2018-08-09T16:01:21.029Z,32.70
2018-08-09T16:03:51.075Z,33.73
2018-08-09T16:06:19.778Z,35.00
2018-08-09T16:08:49.531Z,35.37
2018-08-09T16:11:19.222Z,35.50
2018-08-09T16:13:52.303Z,36.93
2018-08-09T16:16:21.233Z,38.97
2018-08-09T16:18:55.107Z,40.77
2018-08-09T16:21:24.871Z,45.30
2018-08-09T16:23:55.285Z,46.00
2018-08-09T16:26:23.759Z,48.73
2018-08-09T16:28:52.645Z,54.47
2018-08-09T16:31:21.734Z,54.73
2018-08-09T16:33:51.784Z,58.23
2018-08-09T16:36:20.555Z,53.93
2018-08-09T16:38:49.448Z,53.57
2018-08-09T16:41:20.576Z,44.80
2018-08-09T16:43:49.375Z,45.20
2018-08-09T16:46:18.275Z,41.30
2018-08-09T16:48:47.504Z,35.17
2018-08-09T16:51:16.878Z,31.93
2018-08-09T16:53:45.480Z,27.50
2018-08-09T16:56:16.299Z,26.47
2018-08-09T16:58:45.857Z,21.00
2018-08-09T17:01:16.139Z,17.30
2018-08-09T17:03:44.877Z,18.90
2018-08-09T17:06:13.593Z,17.30
2018-08-09T17:08:43.164Z,17.37
2018-08-09T17:11:11.516Z,13.00
2018-08-09T17:13:40.105Z,9.90
2018-08-09T17:16:08.843Z,9.07
2018-08-09T17:18:37.819Z,8.37
2018-08-09T17:21:07.202Z,8.80
2018-08-09T17:23:36.797Z,7.87
2018-08-09T17:26:05.083Z,7.90
2018-08-09T17:28:34.393Z,8.10
2018-08-09T17:31:02.987Z,7.73
2018-08-09T17:33:33.445Z,9.13
2018-08-09T17:36:02.439Z,9.10
2018-08-09T17:38:32.324Z,9.77
2018-08-09T17:41:01.947Z,8.80
2018-08-09T17:43:30.359Z,9.70
2018-08-09T17:46:01.549Z,10.13
2018-08-09T17:48:31.288Z,9.33
2018-08-09T17:51:02.733Z,10.13
2018-08-09T17:53:31.829Z,10.83
2018-08-09T17:56:02.206Z,12.17
2018-08-09T17:58:31.124Z,10.07
2018-08-09T18:00:59.744Z,5.73
2018-08-09T18:03:29.779Z,5.20
2018-08-09T18:06:00.530Z,6.03
2018-08-09T18:08:29.596Z,6.27
2018-08-09T18:10:58.286Z,4.90
2018-08-09T18:13:29.526Z,5.67
2018-08-09T18:15:59.538Z,5.37
2018-08-09T18:18:28.296Z,7.13
2018-08-09T18:20:58.500Z,5.07
2018-08-09T18:23:28.703Z,3.73
2018-08-09T18:25:57.518Z,3.43
2018-08-09T18:28:27.011Z,2.07
2018-08-09T18:30:56.608Z,4.87
2018-08-09T18:33:25.548Z,3.23
2018-08-09T18:35:54.248Z,3.13
2018-08-09T18:38:23.956Z,2.67
2018-08-09T18:40:53.084Z,2.53
2018-08-09T18:43:24.562Z,3.27
2018-08-09T18:45:54.225Z,2.60
2018-08-09T18:48:23.202Z,6.13
2018-08-09T18:50:53.821Z,6.40
2018-08-09T18:53:22.366Z,5.10
2018-08-09T18:55:51.047Z,10.83
2018-08-09T18:58:21.779Z,6.27
2018-08-09T19:00:51.635Z,4.73
2018-08-09T19:03:20.180Z,5.63
2018-08-09T19:05:48.924Z,4.17
2018-08-09T19:08:17.983Z,5.43
2018-08-09T19:10:48.219Z,6.63
2018-08-09T19:13:17.093Z,6.80
2018-08-09T19:15:46.702Z,8.43
2018-08-09T19:18:17.394Z,7.60
2018-08-09T19:20:47.185Z,10.53
2018-08-09T19:23:17.140Z,7.57
2018-08-09T19:25:48.541Z,8.93
2018-08-09T19:28:17.136Z,12.33
2018-08-09T19:30:47.037Z,8.57
2018-08-09T19:33:16.795Z,8.87
2018-08-09T19:35:46.759Z,10.30
2018-08-09T19:38:15.525Z,12.97
2018-08-09T19:40:44.037Z,8.80
2018-08-09T19:43:15.052Z,10.10
2018-08-09T19:45:46.845Z,11.07
2018-08-09T19:48:19.700Z,6.90
2018-08-09T19:50:49.502Z,8.30
2018-08-09T19:53:18.287Z,9.67
2018-08-09T19:55:47.612Z,5.93
2018-08-09T19:58:17.784Z,7.70
2018-08-09T20:00:47.287Z,9.43
2018-08-09T20:03:15.856Z,9.93
2018-08-09T20:05:44.616Z,8.93
2018-08-09T20:08:14.375Z,14.53
2018-08-09T20:10:43.278Z,17.80
2018-08-09T20:13:11.784Z,12.17
2018-08-09T20:15:40.628Z,12.90
2018-08-09T20:18:10.117Z,12.70
2018-08-09T20:20:38.914Z,11.50
2018-08-09T20:23:07.908Z,10.53
2018-08-09T20:25:37.371Z,12.13
2018-08-09T20:28:06.414Z,14.97
2018-08-09T20:30:39.554Z,12.07
2018-08-09T20:33:08.680Z,10.20
2018-08-09T20:35:39.139Z,9.83
2018-08-09T20:38:08.147Z,9.70
2018-08-09T20:40:38.029Z,8.90
2018-08-09T20:43:06.928Z,7.67
2018-08-09T20:45:36.485Z,9.50
2018-08-09T20:48:07.701Z,7.87
2018-08-09T20:50:37.502Z,6.27
2018-08-09T20:53:07.730Z,5.73
2018-08-09T20:55:36.925Z,6.30
2018-08-09T20:58:07.336Z,8.40
2018-08-09T21:00:36.642Z,12.27
2018-08-09T21:03:06.404Z,10.40
2018-08-09T21:05:38.392Z,5.80
2018-08-09T21:08:09.816Z,9.13
2018-08-09T21:10:40.113Z,8.13
2018-08-09T21:13:10.748Z,9.20
2018-08-09T21:15:39.670Z,6.00
2018-08-09T21:18:09.508Z,8.20
2018-08-09T21:20:38.529Z,5.00
2018-08-09T21:23:08.452Z,7.57
2018-08-09T21:25:37.120Z,7.97
2018-08-09T21:28:05.942Z,6.83
2018-08-09T21:30:34.598Z,7.73
2018-08-09T21:33:03.459Z,5.60
2018-08-09T21:35:34.379Z,5.50
2018-08-09T21:38:03.322Z,10.17
2018-08-09T21:40:32.829Z,11.17
2018-08-09T21:43:04.890Z,8.00
2018-08-09T21:45:34.276Z,7.67
2018-08-09T21:48:03.207Z,7.10
2018-08-09T21:50:32.100Z,9.03
2018-08-09T21:53:02.797Z,14.07
2018-08-09T21:55:33.679Z,10.13
2018-08-09T21:58:03.119Z,7.10
2018-08-09T22:01:06.376Z,5.63
2018-08-09T22:03:37.068Z,6.87
2018-08-09T22:06:13.818Z,9.30
2018-08-09T22:08:48.401Z,6.80
2018-08-09T22:11:23.924Z,5.43
2018-08-09T22:14:00.496Z,9.43
2018-08-09T22:16:36.027Z,7.03
2018-08-09T22:19:10.270Z,6.30
2018-08-09T22:21:46.175Z,7.47
2018-08-09T22:24:15.745Z,6.10
2018-08-09T22:26:44.781Z,5.67
2018-08-09T22:29:14.326Z,8.53
2018-08-09T22:31:45.376Z,7.60
2018-08-09T22:34:13.966Z,7.40
2018-08-09T22:36:42.758Z,10.10
2018-08-09T22:39:13.209Z,7.80
2018-08-09T22:41:43.604Z,5.07
2018-08-09T22:44:17.340Z,8.50
2018-08-09T22:46:47.603Z,5.20
2018-08-09T22:49:17.734Z,4.87
2018-08-09T22:51:48.429Z,9.03
2018-08-09T22:54:17.831Z,8.33
2018-08-09T22:56:46.330Z,5.57
2018-08-09T22:59:20.051Z,7.87
2018-08-09T23:01:49.425Z,6.53
2018-08-09T23:04:19.303Z,4.97
2018-08-09T23:06:48.601Z,5.50
2018-08-09T23:09:19.525Z,8.20
2018-08-09T23:11:49.821Z,7.60
2018-08-09T23:14:19.793Z,4.57
2018-08-09T23:16:50.600Z,4.67
2018-08-09T23:19:19.468Z,7.53
2018-08-09T23:21:48.171Z,7.53
2018-08-09T23:24:18.410Z,8.33
2018-08-09T23:26:48.647Z,4.43
2018-08-09T23:29:19.321Z,7.37
2018-08-09T23:31:52.358Z,6.17
2018-08-09T23:34:21.357Z,4.47
2018-08-09T23:36:51.057Z,7.07
2018-08-09T23:39:20.933Z,8.73
2018-08-09T23:41:51.525Z,7.47
2018-08-09T23:44:20.435Z,6.50
2018-08-09T23:46:50.377Z,6.33
2018-08-09T23:49:19.403Z,6.03
2018-08-09T23:51:49.225Z,4.80
2018-08-09T23:54:18.056Z,7.10
2018-08-09T23:56:48.750Z,5.70
2018-08-09T23:59:18.578Z,8.43
